sensor_id;sensor_type;location;lat;lon;timestamp;P1;durP1;ratioP1;P2;durP2;ratioP2
53939;SDS011;39850;43.324;21.916;2023-01-29T00:03:01;30.0;;;28.0;;
53939;SDS011;39850;43.324;21.916;2023-01-29T00:39:52;31.0;;;27.0;;
53939;SDS011;39850;43.324;21.916;2023-01-29T00:44:29;31.0;;;27.0;;
53939;SDS011;39850;43.324;21.916;2023-01-29T00:49:09;30.0;;;27.0;;
53939;SDS011;39850;43.324;21.916;2023-01-29T00:53:46;30.0;;;27.0;;
53939;SDS011;39850;43.324;21.916;2023-01-29T00:58:23;30.0;;;27.0;;
53939;SDS011;39850;43.324;21.916;2023-01-29T01:02:59;30.0;;;27.0;;
53939;SDS011;39850;43.324;21.916;2023-01-29T01:07:36;30.0;;;27.0;;
53939;SDS011;39850;43.324;21.916;2023-01-29T01:12:12;30.0;;;27.0;;
53939;SDS011;39850;43.324;21.916;2023-01-29T01:16:49;30.0;;;27.0;;
53939;SDS011;39850;43.324;21.916;2023-01-29T01:21:26;30.0;;;27.0;;
53939;SDS011;39850;43.324;21.916;2023-01-29T01:26:09;30.0;;;27.0;;
53939;SDS011;39850;43.324;21.916;2023-01-29T01:59:47;27.0;;;24.0;;
53939;SDS011;39850;43.324;21.916;2023-01-29T02:04:29;27.0;;;24.0;;
53939;SDS011;39850;43.324;21.916;2023-01-29T02:09:29;26.0;;;24.0;;
53939;SDS011;39850;43.324;21.916;2023-01-29T02:14:11;26.0;;;24.0;;
53939;SDS011;39850;43.324;21.916;2023-01-29T02:18:50;26.0;;;23.0;;
53939;SDS011;39850;43.324;21.916;2023-01-29T02:25:02;26.0;;;23.0;;
53939;SDS011;39850;43.324;21.916;2023-01-29T02:30:29;26.0;;;23.0;;
53939;SDS011;39850;43.324;21.916;2023-01-29T02:35:38;26.0;;;23.0;;
53939;SDS011;39850;43.324;21.916;2023-01-29T02:40:45;25.0;;;23.0;;
53939;SDS011;39850;43.324;21.916;2023-01-29T02:45:59;25.0;;;23.0;;
53939;SDS011;39850;43.324;21.916;2023-01-29T03:20:42;23.0;;;22.0;;
53939;SDS011;39850;43.324;21.916;2023-01-29T03:25:28;23.0;;;22.0;;
53939;SDS011;39850;43.324;21.916;2023-01-29T03:30:19;24.0;;;22.0;;
53939;SDS011;39850;43.324;21.916;2023-01-29T03:35:17;24.0;;;22.0;;
53939;SDS011;39850;43.324;21.916;2023-01-29T03:40:11;24.0;;;23.0;;
53939;SDS011;39850;43.324;21.916;2023-01-29T03:45:19;24.0;;;23.0;;
53939;SDS011;39850;43.324;21.916;2023-01-29T03:50:51;24.0;;;23.0;;
53939;SDS011;39850;43.324;21.916;2023-01-29T03:56:17;24.0;;;23.0;;
53939;SDS011;39850;43.324;21.916;2023-01-29T04:01:34;24.0;;;23.0;;
53939;SDS011;39850;43.324;21.916;2023-01-29T04:06:34;24.0;;;23.0;;
53939;SDS011;39850;43.324;21.916;2023-01-29T04:51:42;25.0;;;24.0;;
53939;SDS011;39850;43.324;21.916;2023-01-29T04:56:52;25.0;;;24.0;;
53939;SDS011;39850;43.324;21.916;2023-01-29T05:01:37;24.0;;;24.0;;
53939;SDS011;39850;43.324;21.916;2023-01-29T05:06:22;24.0;;;24.0;;
53939;SDS011;39850;43.324;21.916;2023-01-29T05:11:00;24.0;;;24.0;;
53939;SDS011;39850;43.324;21.916;2023-01-29T05:15:53;24.0;;;24.0;;
53939;SDS011;39850;43.324;21.916;2023-01-29T05:20:43;24.0;;;23.0;;
53939;SDS011;39850;43.324;21.916;2023-01-29T05:25:32;24.0;;;23.0;;
53939;SDS011;39850;43.324;21.916;2023-01-29T05:57:49;28.0;;;24.0;;
53939;SDS011;39850;43.324;21.916;2023-01-29T06:02:30;28.0;;;24.0;;
53939;SDS011;39850;43.324;21.916;2023-01-29T06:07:06;28.0;;;24.0;;
53939;SDS011;39850;43.324;21.916;2023-01-29T06:11:43;27.0;;;24.0;;
53939;SDS011;39850;43.324;21.916;2023-01-29T06:16:20;27.0;;;24.0;;
53939;SDS011;39850;43.324;21.916;2023-01-29T06:21:03;28.0;;;24.0;;
53939;SDS011;39850;43.324;21.916;2023-01-29T06:25:45;28.0;;;24.0;;
53939;SDS011;39850;43.324;21.916;2023-01-29T06:30:22;27.0;;;24.0;;
53939;SDS011;39850;43.324;21.916;2023-01-29T06:34:59;27.0;;;24.0;;
53939;SDS011;39850;43.324;21.916;2023-01-29T06:39:35;28.0;;;25.0;;
53939;SDS011;39850;43.324;21.916;2023-01-29T06:44:12;28.0;;;25.0;;
53939;SDS011;39850;43.324;21.916;2023-01-29T07:21:15;27.0;;;24.0;;
53939;SDS011;39850;43.324;21.916;2023-01-29T07:25:51;27.0;;;24.0;;
53939;SDS011;39850;43.324;21.916;2023-01-29T07:30:29;26.0;;;24.0;;
53939;SDS011;39850;43.324;21.916;2023-01-29T07:35:09;26.0;;;24.0;;
53939;SDS011;39850;43.324;21.916;2023-01-29T07:39:46;27.0;;;24.0;;
53939;SDS011;39850;43.324;21.916;2023-01-29T07:44:23;27.0;;;24.0;;
53939;SDS011;39850;43.324;21.916;2023-01-29T07:48:59;26.0;;;24.0;;
53939;SDS011;39850;43.324;21.916;2023-01-29T07:53:35;26.0;;;24.0;;
53939;SDS011;39850;43.324;21.916;2023-01-29T07:58:12;27.0;;;25.0;;
53939;SDS011;39850;43.324;21.916;2023-01-29T08:02:49;27.0;;;25.0;;
53939;SDS011;39850;43.324;21.916;2023-01-29T08:07:26;27.0;;;25.0;;
53939;SDS011;39850;43.324;21.916;2023-01-29T08:39:47;30.0;;;27.0;;
53939;SDS011;39850;43.324;21.916;2023-01-29T08:44:24;30.0;;;27.0;;
53939;SDS011;39850;43.324;21.916;2023-01-29T08:49:00;30.0;;;27.0;;
53939;SDS011;39850;43.324;21.916;2023-01-29T08:53:37;30.0;;;27.0;;
53939;SDS011;39850;43.324;21.916;2023-01-29T08:58:13;30.0;;;27.0;;
53939;SDS011;39850;43.324;21.916;2023-01-29T09:02:50;30.0;;;27.0;;
53939;SDS011;39850;43.324;21.916;2023-01-29T09:07:29;30.0;;;27.0;;
53939;SDS011;39850;43.324;21.916;2023-01-29T09:12:06;32.0;;;28.0;;
53939;SDS011;39850;43.324;21.916;2023-01-29T09:16:43;32.0;;;28.0;;
53939;SDS011;39850;43.324;21.916;2023-01-29T09:21:19;34.0;;;30.0;;
53939;SDS011;39850;43.324;21.916;2023-01-29T09:25:57;34.0;;;30.0;;
53939;SDS011;39850;43.324;21.916;2023-01-29T09:59:35;32.0;;;27.0;;
53939;SDS011;39850;43.324;21.916;2023-01-29T10:05:31;32.0;;;27.0;;
53939;SDS011;39850;43.324;21.916;2023-01-29T10:10:50;34.0;;;30.0;;
53939;SDS011;39850;43.324;21.916;2023-01-29T10:16:31;34.0;;;30.0;;
53939;SDS011;39850;43.324;21.916;2023-01-29T10:22:22;35.0;;;30.0;;
53939;SDS011;39850;43.324;21.916;2023-01-29T10:27:17;35.0;;;30.0;;
53939;SDS011;39850;43.324;21.916;2023-01-29T10:32:03;36.0;;;31.0;;
53939;SDS011;39850;43.324;21.916;2023-01-29T10:36:49;36.0;;;31.0;;
53939;SDS011;39850;43.324;21.916;2023-01-29T10:42:19;35.0;;;30.0;;
53939;SDS011;39850;43.324;21.916;2023-01-29T11:22:54;37.0;;;30.0;;
53939;SDS011;39850;43.324;21.916;2023-01-29T11:27:51;37.0;;;30.0;;
53939;SDS011;39850;43.324;21.916;2023-01-29T11:32:35;37.0;;;30.0;;
53939;SDS011;39850;43.324;21.916;2023-01-29T11:37:16;37.0;;;30.0;;
53939;SDS011;39850;43.324;21.916;2023-01-29T11:42:03;40.0;;;32.0;;
53939;SDS011;39850;43.324;21.916;2023-01-29T11:46:40;40.0;;;32.0;;
53939;SDS011;39850;43.324;21.916;2023-01-29T11:51:28;44.0;;;35.0;;
53939;SDS011;39850;43.324;21.916;2023-01-29T11:56:28;44.0;;;35.0;;
53939;SDS011;39850;43.324;21.916;2023-01-29T12:01:11;44.0;;;35.0;;
53939;SDS011;39850;43.324;21.916;2023-01-29T12:06:02;44.0;;;35.0;;
53939;SDS011;39850;43.324;21.916;2023-01-29T12:40:20;62.0;;;44.0;;
53939;SDS011;39850;43.324;21.916;2023-01-29T12:45:17;62.0;;;44.0;;
53939;SDS011;39850;43.324;21.916;2023-01-29T12:50:17;62.0;;;44.0;;
53939;SDS011;39850;43.324;21.916;2023-01-29T12:55:17;62.0;;;44.0;;
53939;SDS011;39850;43.324;21.916;2023-01-29T13:00:19;64.0;;;46.0;;
53939;SDS011;39850;43.324;21.916;2023-01-29T13:05:28;64.0;;;46.0;;
53939;SDS011;39850;43.324;21.916;2023-01-29T13:10:25;65.0;;;47.0;;
53939;SDS011;39850;43.324;21.916;2023-01-29T13:15:33;65.0;;;47.0;;
53939;SDS011;39850;43.324;21.916;2023-01-29T13:20:32;65.0;;;47.0;;
53939;SDS011;39850;43.324;21.916;2023-01-29T13:25:19;65.0;;;47.0;;
53939;SDS011;39850;43.324;21.916;2023-01-29T14:04:31;64.0;;;47.0;;
53939;SDS011;39850;43.324;21.916;2023-01-29T14:11:36;64.0;;;48.0;;
53939;SDS011;39850;43.324;21.916;2023-01-29T14:16:36;64.0;;;48.0;;
53939;SDS011;39850;43.324;21.916;2023-01-29T14:21:31;64.0;;;47.0;;
53939;SDS011;39850;43.324;21.916;2023-01-29T14:26:54;64.0;;;47.0;;
53939;SDS011;39850;43.324;21.916;2023-01-29T14:31:52;64.0;;;48.0;;
53939;SDS011;39850;43.324;21.916;2023-01-29T14:36:45;64.0;;;48.0;;
53939;SDS011;39850;43.324;21.916;2023-01-29T14:41:35;62.0;;;47.0;;
53939;SDS011;39850;43.324;21.916;2023-01-29T14:46:49;62.0;;;47.0;;
53939;SDS011;39850;43.324;21.916;2023-01-29T15:21:37;54.0;;;43.0;;
53939;SDS011;39850;43.324;21.916;2023-01-29T15:26:25;54.0;;;43.0;;
53939;SDS011;39850;43.324;21.916;2023-01-29T15:31:17;54.0;;;43.0;;
53939;SDS011;39850;43.324;21.916;2023-01-29T15:36:04;54.0;;;43.0;;
53939;SDS011;39850;43.324;21.916;2023-01-29T15:40:53;56.0;;;44.0;;
53939;SDS011;39850;43.324;21.916;2023-01-29T15:45:39;56.0;;;44.0;;
53939;SDS011;39850;43.324;21.916;2023-01-29T15:50:18;57.0;;;46.0;;
53939;SDS011;39850;43.324;21.916;2023-01-29T15:55:06;57.0;;;46.0;;
53939;SDS011;39850;43.324;21.916;2023-01-29T15:59:48;57.0;;;46.0;;
53939;SDS011;39850;43.324;21.916;2023-01-29T16:04:30;57.0;;;46.0;;
53939;SDS011;39850;43.324;21.916;2023-01-29T16:09:21;57.0;;;46.0;;
53939;SDS011;39850;43.324;21.916;2023-01-29T16:42:45;61.0;;;47.0;;
53939;SDS011;39850;43.324;21.916;2023-01-29T16:47:38;61.0;;;47.0;;
53939;SDS011;39850;43.324;21.916;2023-01-29T16:52:30;62.0;;;48.0;;
53939;SDS011;39850;43.324;21.916;2023-01-29T16:57:26;62.0;;;48.0;;
53939;SDS011;39850;43.324;21.916;2023-01-29T17:02:30;62.0;;;48.0;;
53939;SDS011;39850;43.324;21.916;2023-01-29T17:07:18;62.0;;;48.0;;
53939;SDS011;39850;43.324;21.916;2023-01-29T17:12:06;64.0;;;50.0;;
53939;SDS011;39850;43.324;21.916;2023-01-29T17:17:11;64.0;;;50.0;;
53939;SDS011;39850;43.324;21.916;2023-01-29T18:13:15;50.0;;;40.0;;
53939;SDS011;39850;43.324;21.916;2023-01-29T18:17:51;50.0;;;40.0;;
53939;SDS011;39850;43.324;21.916;2023-01-29T18:22:28;50.0;;;40.0;;
53939;SDS011;39850;43.324;21.916;2023-01-29T18:27:05;50.0;;;40.0;;
53939;SDS011;39850;43.324;21.916;2023-01-29T18:31:41;50.0;;;40.0;;
53939;SDS011;39850;43.324;21.916;2023-01-29T18:36:18;50.0;;;40.0;;
53939;SDS011;39850;43.324;21.916;2023-01-29T19:31:48;45.0;;;38.0;;
53939;SDS011;39850;43.324;21.916;2023-01-29T19:36:25;45.0;;;38.0;;
53939;SDS011;39850;43.324;21.916;2023-01-29T19:41:03;45.0;;;38.0;;
53939;SDS011;39850;43.324;21.916;2023-01-29T19:45:41;45.0;;;38.0;;
53939;SDS011;39850;43.324;21.916;2023-01-29T19:50:19;45.0;;;38.0;;
53939;SDS011;39850;43.324;21.916;2023-01-29T19:54:56;45.0;;;38.0;;
53939;SDS011;39850;43.324;21.916;2023-01-29T19:59:33;45.0;;;38.0;;
53939;SDS011;39850;43.324;21.916;2023-01-29T22:13:26;45.0;;;37.0;;
53939;SDS011;39850;43.324;21.916;2023-01-29T22:18:04;45.0;;;37.0;;
53939;SDS011;39850;43.324;21.916;2023-01-29T22:22:41;46.0;;;36.0;;
53939;SDS011;39850;43.324;21.916;2023-01-29T22:27:18;46.0;;;36.0;;
53939;SDS011;39850;43.324;21.916;2023-01-29T22:31:55;46.0;;;36.0;;
53939;SDS011;39850;43.324;21.916;2023-01-29T22:36:32;46.0;;;36.0;;
53939;SDS011;39850;43.324;21.916;2023-01-29T22:41:11;46.0;;;36.0;;
53939;SDS011;39850;43.324;21.916;2023-01-29T22:45:48;46.0;;;36.0;;
53939;SDS011;39850;43.324;21.916;2023-01-29T22:50:25;46.0;;;36.0;;
